Time;durP1;ratioP1;P1;durP2;ratioP2;P2;SDS_P1;SDS_P2;PMS_P1;PMS_P2;Temp;Humidity;BMP_temperature;BMP_pressure;BME280_temperature;BME280_humidity;BME280_pressure;Samples;Min_cycle;Max_cycle;Signal;HPM_P1;HPM_P2
2021/11/19 00:00:44;;;;;;;26.67;10.90;;;11.70;94.10;;;;;;5040836;28;20168;-82
2021/11/19 00:03:11;;;;;;;24.23;11.33;;;11.80;94.10;;;;;;5040830;28;20195;-82
2021/11/19 00:05:37;;;;;;;29.33;11.37;;;11.80;94.00;;;;;;5045999;28;20255;-82
2021/11/19 00:08:04;;;;;;;34.33;10.90;;;11.80;93.90;;;;;;5046256;28;20180;-82
2021/11/19 00:10:30;;;;;;;29.47;9.60;;;11.80;93.90;;;;;;5046286;28;20179;-82
2021/11/19 00:12:55;;;;;;;24.97;9.07;;;11.80;93.90;;;;;;5063939;28;20630;-83
2021/11/19 00:15:22;;;;;;;35.40;9.17;;;11.80;93.90;;;;;;5063869;28;20192;-82
2021/11/19 00:17:48;;;;;;;17.67;6.87;;;11.80;93.80;;;;;;5039426;28;20199;-83
2021/11/19 00:20:16;;;;;;;21.30;7.40;;;11.80;93.70;;;;;;5057427;28;20721;-82
2021/11/19 00:22:42;;;;;;;15.40;6.30;;;11.80;93.70;;;;;;5058326;28;20191;-83
2021/11/19 00:25:08;;;;;;;25.13;6.40;;;11.80;93.70;;;;;;5058222;28;20188;-82
2021/11/19 00:27:35;;;;;;;21.67;6.40;;;11.80;93.60;;;;;;5040095;28;20179;-83
2021/11/19 00:30:05;;;;;;;19.23;6.73;;;11.80;93.70;;;;;;5057741;28;20629;-82
2021/11/19 00:32:31;;;;;;;20.37;6.17;;;11.80;93.60;;;;;;5039194;28;20168;-82
2021/11/19 00:34:56;;;;;;;18.43;5.67;;;11.80;93.60;;;;;;5057017;28;20589;-82
2021/11/19 00:37:22;;;;;;;16.53;6.03;;;11.80;93.40;;;;;;5057349;28;20184;-82
2021/11/19 00:39:49;;;;;;;28.40;7.60;;;11.90;93.30;;;;;;5039120;28;20176;-83
2021/11/19 00:42:14;;;;;;;21.13;6.50;;;11.90;93.30;;;;;;5057084;28;20632;-83
2021/11/19 00:44:40;;;;;;;14.20;5.57;;;11.90;93.30;;;;;;5059814;28;20230;-82
2021/11/19 00:47:08;;;;;;;25.80;6.70;;;11.90;93.30;;;;;;5060422;28;20236;-82
2021/11/19 00:49:36;;;;;;;19.03;6.10;;;11.90;93.20;;;;;;5042525;28;20186;-82
2021/11/19 00:52:03;;;;;;;18.73;5.90;;;11.80;93.30;;;;;;5042524;28;20552;-82
2021/11/19 00:54:29;;;;;;;23.83;7.33;;;11.90;93.30;;;;;;5042995;28;20237;-83
2021/11/19 00:57:00;;;;;;;28.03;6.07;;;11.90;93.20;;;;;;5044924;28;20204;-83
2021/11/19 00:59:27;;;;;;;21.63;6.20;;;11.80;93.30;;;;;;5062446;28;20164;-82
2021/11/19 01:01:59;;;;;;;15.87;5.47;;;11.80;93.40;;;;;;5062174;28;20168;-83
2021/11/19 01:04:27;;;;;;;20.63;6.00;;;11.90;93.20;;;;;;5061305;28;20621;-83
2021/11/19 01:06:53;;;;;;;14.80;4.83;;;11.90;93.10;;;;;;5042822;28;20207;-82
2021/11/19 01:09:25;;;;;;;20.77;5.30;;;11.90;93.10;;;;;;5061387;28;20176;-83
2021/11/19 01:11:54;;;;;;;18.07;4.43;;;11.90;93.10;;;;;;5056665;28;20263;-83
2021/11/19 01:14:41;;;;;;;22.30;4.53;;;11.90;93.10;;;;;;5038652;28;20180;-82
2021/11/19 01:17:23;;;;;;;18.97;4.93;;;11.90;93.00;;;;;;5057378;28;20184;-82
2021/11/19 01:19:55;;;;;;;30.47;6.77;;;11.90;93.00;;;;;;5057377;28;20643;-82
2021/11/19 01:22:25;;;;;;;16.23;4.67;;;11.90;92.90;;;;;;5058010;28;20179;-83
2021/11/19 01:24:51;;;;;;;18.23;5.33;;;11.90;92.90;;;;;;5039729;28;20192;-83
2021/11/19 01:27:18;;;;;;;17.20;4.40;;;12.00;92.90;;;;;;5059280;28;20172;-82
2021/11/19 01:29:44;;;;;;;18.87;6.07;;;11.90;92.90;;;;;;5058275;28;20259;-82
2021/11/19 01:32:13;;;;;;;27.40;6.07;;;12.00;92.80;;;;;;5059455;28;20195;-82
2021/11/19 01:34:39;;;;;;;18.33;4.93;;;11.90;92.80;;;;;;5038673;28;20656;-83
2021/11/19 01:37:06;;;;;;;12.30;4.03;;;12.00;92.70;;;;;;5059718;28;20196;-82
2021/11/19 01:39:34;;;;;;;33.07;15.80;;;12.00;92.60;;;;;;5060040;28;20172;-82
2021/11/19 01:42:27;;;;;;;21.03;6.23;;;12.00;92.70;;;;;;5042946;28;20171;-81
2021/11/19 01:44:53;;;;;;;14.57;4.67;;;12.00;92.70;;;;;;5050933;28;20577;-81
2021/11/19 01:47:19;;;;;;;21.53;5.40;;;12.00;92.80;;;;;;5042873;28;20176;-82
2021/11/19 01:49:45;;;;;;;17.67;5.13;;;11.90;92.90;;;;;;5060558;28;20183;-82
2021/11/19 01:52:20;;;;;;;16.33;5.10;;;12.00;92.90;;;;;;5043340;28;20565;-82
2021/11/19 01:54:54;;;;;;;21.23;5.63;;;11.90;92.90;;;;;;5060031;28;20213;-82
2021/11/19 01:57:24;;;;;;;15.13;5.20;;;11.90;93.00;;;;;;5059642;28;20252;-82
2021/11/19 02:00:20;;;;;;;21.70;5.77;;;12.00;93.00;;;;;;5056197;28;20207;-82
2021/11/19 02:02:50;;;;;;;23.07;5.33;;;11.90;93.00;;;;;;5020130;28;20195;-83
2021/11/19 02:05:25;;;;;;;13.43;5.50;;;11.90;93.00;;;;;;5037307;28;20195;-82
2021/11/19 02:08:00;;;;;;;18.10;5.77;;;11.90;93.10;;;;;;5055675;28;20167;-82
2021/11/19 02:10:25;;;;;;;23.80;6.57;;;11.90;93.20;;;;;;5055305;28;20166;-82
2021/11/19 02:13:38;;;;;;;19.50;6.03;;;11.90;93.20;;;;;;5055252;28;20176;-81
2021/11/19 02:16:21;;;;;;;23.33;5.63;;;11.90;93.10;;;;;;4942988;29;20636;-82
2021/11/19 02:19:00;;;;;;;22.87;5.77;;;11.90;93.20;;;;;;5049551;28;20196;-81
2021/11/19 02:21:57;;;;;;;18.30;5.60;;;11.90;93.20;;;;;;5040623;28;20203;-82
2021/11/19 02:24:38;;;;;;;19.30;5.10;;;11.90;93.10;;;;;;5037052;28;20219;-81
2021/11/19 02:27:19;;;;;;;15.63;5.47;;;11.90;93.10;;;;;;5054949;28;20234;-82
2021/11/19 02:29:59;;;;;;;23.30;5.40;;;11.90;93.10;;;;;;5040705;28;20643;-82
2021/11/19 02:32:31;;;;;;;20.33;5.03;;;11.90;93.10;;;;;;5058709;28;20176;-81
2021/11/19 02:34:57;;;;;;;20.37;5.90;;;11.90;93.10;;;;;;5058517;28;20226;-81
2021/11/19 02:37:34;;;;;;;24.83;5.63;;;11.90;93.00;;;;;;5058131;28;20552;-81
2021/11/19 02:40:07;;;;;;;21.20;5.20;;;11.90;93.10;;;;;;5040284;28;20202;-82
2021/11/19 02:42:40;;;;;;;24.83;5.77;;;11.90;93.00;;;;;;5058083;28;20156;-81
2021/11/19 02:45:11;;;;;;;27.17;6.57;;;11.90;93.10;;;;;;5040226;28;20246;-82
2021/11/19 02:47:37;;;;;;;20.87;4.73;;;11.90;93.00;;;;;;5037176;28;20204;-81
2021/11/19 02:50:04;;;;;;;25.47;4.80;;;11.90;92.90;;;;;;5040733;28;20186;-82
2021/11/19 02:52:37;;;;;;;18.47;4.23;;;11.90;92.90;;;;;;5058551;28;20183;-81
2021/11/19 02:55:15;;;;;;;22.17;4.93;;;11.90;92.90;;;;;;5057523;28;20207;-82
2021/11/19 02:57:41;;;;;;;20.40;4.57;;;11.90;92.80;;;;;;5057909;28;20179;-82
2021/11/19 03:00:12;;;;;;;17.00;4.73;;;11.90;92.80;;;;;;5036917;28;20175;-85
2021/11/19 03:02:38;;;;;;;20.93;4.57;;;11.90;92.90;;;;;;5036745;28;20221;-82
2021/11/19 03:05:09;;;;;;;21.23;4.43;;;11.90;92.80;;;;;;5054397;28;20192;-82
2021/11/19 03:07:35;;;;;;;19.90;4.33;;;11.90;92.80;;;;;;5054321;28;20165;-81
2021/11/19 03:10:07;;;;;;;26.03;5.00;;;11.90;92.70;;;;;;5054226;28;20525;-82
2021/11/19 03:12:34;;;;;;;19.00;4.20;;;11.90;92.50;;;;;;5036789;28;20267;-82
2021/11/19 03:15:05;;;;;;;26.20;5.43;;;11.90;92.60;;;;;;5054601;28;20183;-82
2021/11/19 03:17:30;;;;;;;16.43;4.00;;;12.00;92.60;;;;;;5036118;28;20199;-81
2021/11/19 03:19:56;;;;;;;22.50;5.20;;;12.00;92.50;;;;;;5054323;28;20163;-81
2021/11/19 03:22:25;;;;;;;21.37;4.57;;;11.90;92.50;;;;;;5054279;28;20199;-81
2021/11/19 03:24:50;;;;;;;18.47;4.43;;;11.90;92.60;;;;;;5036438;28;20201;-81
2021/11/19 03:27:17;;;;;;;17.40;4.23;;;11.90;92.70;;;;;;5036067;28;20630;-81
2021/11/19 03:29:45;;;;;;;29.20;5.47;;;11.90;92.70;;;;;;5039652;28;20548;-81
2021/11/19 03:32:14;;;;;;;19.37;4.83;;;11.90;92.80;;;;;;5058462;28;20179;-82
2021/11/19 03:34:40;;;;;;;31.23;5.20;;;11.90;92.70;;;;;;5062026;28;20699;-81
2021/11/19 03:37:06;;;;;;;22.67;4.63;;;11.90;92.70;;;;;;5060480;28;20231;-81
2021/11/19 03:39:33;;;;;;;18.87;4.87;;;11.90;92.70;;;;;;5058324;28;20628;-82
2021/11/19 03:42:00;;;;;;;24.37;4.87;;;12.00;92.40;;;;;;5058308;28;20183;-82
2021/11/19 03:44:34;;;;;;;19.77;4.67;;;11.90;92.30;;;;;;5039686;28;20176;-82
2021/11/19 03:47:13;;;;;;;21.63;5.13;;;11.90;92.20;;;;;;5060984;28;20176;-82
2021/11/19 03:49:41;;;;;;;17.03;4.47;;;12.00;92.20;;;;;;5040052;28;20171;-82
2021/11/19 03:52:12;;;;;;;21.80;5.30;;;11.90;92.20;;;;;;5039893;28;20179;-82
2021/11/19 03:54:40;;;;;;;15.93;4.10;;;12.00;92.20;;;;;;5040091;28;20182;-82
2021/11/19 03:57:07;;;;;;;22.40;5.33;;;11.90;92.00;;;;;;5057475;28;20264;-82
2021/11/19 03:59:32;;;;;;;18.13;5.40;;;11.90;92.00;;;;;;5058071;28;20251;-82
2021/11/19 04:01:59;;;;;;;15.03;4.40;;;12.00;92.00;;;;;;5057631;28;20196;-82
2021/11/19 04:04:29;;;;;;;21.20;5.50;;;11.90;92.00;;;;;;5057603;28;20675;-82
2021/11/19 04:06:57;;;;;;;17.47;5.13;;;12.00;91.80;;;;;;5057815;28;20302;-82
2021/11/19 04:09:23;;;;;;;22.87;4.87;;;11.90;91.80;;;;;;5039675;28;20217;-81
2021/11/19 04:11:49;;;;;;;23.93;5.23;;;11.90;92.00;;;;;;5057731;28;20553;-81
2021/11/19 04:14:15;;;;;;;20.27;5.13;;;11.90;92.10;;;;;;5039638;28;20575;-81
2021/11/19 04:16:47;;;;;;;19.00;5.83;;;11.90;92.20;;;;;;5041656;28;20641;-81
2021/11/19 04:19:14;;;;;;;20.37;5.50;;;11.90;92.10;;;;;;5060532;28;20639;-82
2021/11/19 04:21:41;;;;;;;16.23;5.67;;;11.90;92.10;;;;;;5059858;28;20300;-81
2021/11/19 04:24:09;;;;;;;25.30;5.57;;;11.90;92.10;;;;;;5042299;28;20196;-82
2021/11/19 04:26:36;;;;;;;20.63;5.90;;;11.90;92.10;;;;;;5059271;28;20215;-81
2021/11/19 04:29:05;;;;;;;21.00;5.43;;;12.00;91.90;;;;;;5041513;28;20179;-81
2021/11/19 04:31:32;;;;;;;18.63;4.97;;;12.00;91.90;;;;;;5041572;28;20694;-81
2021/11/19 04:33:59;;;;;;;19.77;5.33;;;11.90;91.90;;;;;;5059835;28;20172;-81
2021/11/19 04:36:25;;;;;;;28.17;5.63;;;11.90;92.10;;;;;;5059338;28;20239;-81
2021/11/19 04:38:51;;;;;;;19.87;5.33;;;11.80;92.20;;;;;;5060143;28;20575;-81
2021/11/19 04:41:17;;;;;;;28.07;7.07;;;11.90;92.20;;;;;;5041206;28;20168;-82
2021/11/19 04:43:44;;;;;;;20.33;6.57;;;11.90;92.10;;;;;;5055765;28;20164;-82
2021/11/19 04:46:10;;;;;;;22.57;5.83;;;11.90;92.10;;;;;;5057511;28;20191;-82
2021/11/19 04:48:37;;;;;;;23.07;5.77;;;11.90;92.20;;;;;;5059497;28;20176;-82
2021/11/19 04:51:08;;;;;;;21.50;5.50;;;11.90;92.20;;;;;;5040963;28;20180;-82
2021/11/19 04:53:34;;;;;;;22.17;5.30;;;11.90;92.30;;;;;;5059215;28;20160;-82
2021/11/19 04:56:00;;;;;;;24.20;6.13;;;11.90;92.30;;;;;;5061463;28;20737;-82
2021/11/19 04:58:26;;;;;;;20.37;4.97;;;11.90;92.40;;;;;;5061332;28;20196;-82
2021/11/19 05:01:04;;;;;;;23.07;5.63;;;11.90;92.30;;;;;;5044009;28;20172;-82
2021/11/19 05:03:31;;;;;;;23.03;6.07;;;11.80;92.30;;;;;;5060398;28;20178;-82
2021/11/19 05:05:57;;;;;;;28.00;5.57;;;11.90;92.20;;;;;;5058752;28;20210;-83
2021/11/19 05:08:23;;;;;;;30.10;7.03;;;11.90;92.30;;;;;;5059368;28;20168;-82
2021/11/19 05:10:52;;;;;;;28.07;5.83;;;11.90;92.20;;;;;;5042358;28;20556;-83
2021/11/19 05:13:19;;;;;;;25.47;5.73;;;11.90;92.30;;;;;;5060856;28;20178;-82
2021/11/19 05:15:47;;;;;;;27.70;6.00;;;11.90;92.30;;;;;;5042299;28;20191;-82
2021/11/19 05:18:13;;;;;;;18.63;4.43;;;11.80;92.40;;;;;;5042357;28;20294;-83
2021/11/19 05:20:39;;;;;;;30.70;6.27;;;11.90;92.30;;;;;;5041118;28;20649;-84
2021/11/19 05:23:07;;;;;;;20.93;4.93;;;11.90;92.20;;;;;;5058642;28;20172;-82
2021/11/19 05:25:35;;;;;;;20.93;4.93;;;11.90;92.30;;;;;;5039739;28;20192;-82
2021/11/19 05:28:01;;;;;;;31.10;6.07;;;11.90;92.20;;;;;;5058322;28;20199;-82
2021/11/19 05:30:27;;;;;;;31.33;6.90;;;11.90;92.30;;;;;;5058161;28;20275;-82
2021/11/19 05:32:53;;;;;;;27.97;6.17;;;11.90;92.10;;;;;;5040997;28;20644;-82
2021/11/19 05:35:22;;;;;;;20.47;5.07;;;11.90;92.20;;;;;;5042429;28;20297;-82
2021/11/19 05:37:48;;;;;;;21.77;5.57;;;11.90;92.30;;;;;;5059494;28;20204;-81
2021/11/19 05:40:17;;;;;;;32.53;5.80;;;11.90;92.30;;;;;;5041827;28;20181;-81
2021/11/19 05:42:45;;;;;;;19.60;5.30;;;12.00;92.00;;;;;;5058433;28;20252;-82
2021/11/19 05:45:12;;;;;;;20.53;5.33;;;11.90;92.10;;;;;;5057864;28;20717;-82
2021/11/19 05:47:38;;;;;;;20.87;5.30;;;12.00;92.10;;;;;;5057741;28;20226;-81
2021/11/19 05:50:06;;;;;;;16.30;5.10;;;12.00;92.00;;;;;;5040233;28;20183;-82
2021/11/19 05:52:32;;;;;;;25.03;5.83;;;12.00;91.90;;;;;;5058769;28;20180;-82
2021/11/19 05:55:00;;;;;;;25.63;5.83;;;12.00;92.10;;;;;;5040431;28;20249;-82
2021/11/19 05:57:26;;;;;;;28.77;6.13;;;12.00;92.00;;;;;;5039792;28;20192;-84
2021/11/19 05:59:51;;;;;;;18.37;5.43;;;12.00;91.90;;;;;;5057959;28;20225;-82
2021/11/19 06:02:19;;;;;;;21.93;5.20;;;12.00;91.90;;;;;;5058589;28;20176;-82
2021/11/19 06:04:45;;;;;;;27.13;6.13;;;11.90;92.00;;;;;;5041373;28;20615;-82
2021/11/19 06:07:10;;;;;;;18.23;5.23;;;11.90;92.10;;;;;;5058246;28;20190;-83
2021/11/19 06:09:40;;;;;;;27.43;5.87;;;12.00;92.00;;;;;;5058400;28;20692;-83
2021/11/19 06:12:19;;;;;;;23.93;5.60;;;12.00;92.00;;;;;;5058643;28;20164;-83
2021/11/19 06:14:52;;;;;;;32.40;7.77;;;11.90;92.10;;;;;;5058052;28;20160;-83
2021/11/19 06:17:32;;;;;;;29.50;5.97;;;11.90;92.20;;;;;;5057488;28;20192;-82
2021/11/19 06:20:01;;;;;;;22.17;6.00;;;12.00;92.20;;;;;;5040865;28;20662;-82
2021/11/19 06:22:39;;;;;;;26.70;5.83;;;12.00;92.00;;;;;;5057940;28;20163;-81
2021/11/19 06:25:10;;;;;;;21.43;5.50;;;12.00;92.00;;;;;;5039981;28;20192;-85
2021/11/19 06:27:37;;;;;;;24.30;5.27;;;11.90;92.10;;;;;;5058667;28;20164;-82
2021/11/19 06:30:06;;;;;;;25.73;4.67;;;11.90;92.10;;;;;;5058062;28;20176;-82
2021/11/19 06:32:32;;;;;;;17.70;4.53;;;11.90;92.00;;;;;;5058554;28;20164;-82
2021/11/19 06:34:58;;;;;;;20.33;5.30;;;12.00;92.10;;;;;;5041288;28;20207;-82
2021/11/19 06:37:24;;;;;;;14.07;4.27;;;12.00;91.80;;;;;;5040874;28;20686;-82
2021/11/19 06:39:50;;;;;;;26.20;5.37;;;12.00;91.80;;;;;;5041390;28;20176;-83
2021/11/19 06:42:16;;;;;;;24.37;5.27;;;12.00;91.80;;;;;;5059153;28;20587;-82
2021/11/19 06:44:44;;;;;;;25.83;5.20;;;12.00;91.80;;;;;;5059004;28;20172;-82
2021/11/19 06:47:10;;;;;;;34.53;6.30;;;12.00;91.60;;;;;;5058032;28;20592;-85
2021/11/19 06:49:37;;;;;;;17.50;5.10;;;12.00;91.70;;;;;;5059865;28;20246;-82
2021/11/19 06:52:05;;;;;;;18.23;4.87;;;12.00;91.80;;;;;;5059015;28;20517;-82
2021/11/19 06:54:32;;;;;;;21.50;4.80;;;12.00;91.70;;;;;;5057334;28;20520;-84
2021/11/19 06:56:58;;;;;;;20.40;4.87;;;12.00;91.60;;;;;;5058283;28;20200;-82
2021/11/19 06:59:23;;;;;;;18.93;4.87;;;12.00;91.70;;;;;;5058340;28;20172;-81
2021/11/19 07:01:49;;;;;;;24.53;5.80;;;12.00;91.80;;;;;;5058794;28;20567;-82
2021/11/19 07:04:15;;;;;;;17.63;4.53;;;12.00;91.80;;;;;;5040761;28;20701;-83
2021/11/19 07:06:41;;;;;;;13.33;4.73;;;12.00;91.70;;;;;;5039487;28;20200;-83
2021/11/19 07:09:09;;;;;;;23.57;4.73;;;12.00;91.80;;;;;;5058115;28;20633;-82
2021/11/19 07:11:35;;;;;;;19.03;5.50;;;12.00;91.90;;;;;;5039653;28;20180;-82
2021/11/19 07:14:01;;;;;;;19.23;5.10;;;11.90;92.00;;;;;;5059354;28;20175;-82
2021/11/19 07:16:29;;;;;;;28.87;5.80;;;11.90;92.10;;;;;;5057915;28;20195;-83
2021/11/19 07:18:55;;;;;;;23.83;6.03;;;11.90;92.10;;;;;;5057237;28;20211;-85
2021/11/19 07:21:22;;;;;;;23.47;6.43;;;11.90;92.10;;;;;;5057860;28;20176;-85
2021/11/19 07:23:49;;;;;;;19.13;6.20;;;12.00;92.00;;;;;;5040098;28;20218;-84
2021/11/19 07:26:15;;;;;;;24.03;5.10;;;11.90;92.00;;;;;;5059458;28;20545;-83
2021/11/19 07:28:42;;;;;;;26.50;6.93;;;12.00;92.10;;;;;;5056627;28;20172;-85
2021/11/19 07:31:09;;;;;;;14.70;5.43;;;11.90;92.00;;;;;;5056595;28;20183;-84
2021/11/19 07:33:36;;;;;;;22.53;6.77;;;11.90;92.10;;;;;;5039602;28;20186;-84
2021/11/19 07:36:04;;;;;;;22.00;5.23;;;11.90;92.00;;;;;;5058435;28;20681;-83
2021/11/19 07:38:30;;;;;;;14.10;4.43;;;12.00;92.00;;;;;;5041729;28;20253;-84
2021/11/19 07:40:57;;;;;;;21.53;5.57;;;11.90;92.20;;;;;;5041402;28;20188;-83
2021/11/19 07:43:27;;;;;;;27.93;6.50;;;11.90;92.10;;;;;;5059493;28;20228;-85
2021/11/19 07:45:55;;;;;;;21.23;6.20;;;11.90;92.10;;;;;;5059623;28;20607;-82
2021/11/19 07:48:25;;;;;;;21.00;5.73;;;11.90;92.20;;;;;;5042467;28;20192;-82
2021/11/19 07:50:54;;;;;;;23.70;5.90;;;11.90;92.20;;;;;;5060363;28;20249;-83
2021/11/19 07:53:21;;;;;;;23.40;7.77;;;11.90;92.30;;;;;;5059961;28;20186;-83
2021/11/19 07:55:49;;;;;;;23.10;6.33;;;11.90;92.30;;;;;;5060289;28;20210;-82
2021/11/19 07:58:15;;;;;;;17.17;6.10;;;11.90;92.30;;;;;;5059415;28;20273;-82
2021/11/19 08:00:45;;;;;;;22.20;6.87;;;11.90;92.30;;;;;;5056378;28;20203;-82
2021/11/19 08:03:12;;;;;;;21.53;6.67;;;11.90;92.30;;;;;;5059355;28;20184;-82
2021/11/19 08:05:39;;;;;;;21.83;6.73;;;12.00;92.30;;;;;;5041077;28;20200;-82
2021/11/19 08:08:05;;;;;;;25.30;6.77;;;11.90;92.40;;;;;;5041589;28;20184;-83
2021/11/19 08:10:30;;;;;;;29.77;9.00;;;11.90;92.50;;;;;;5059250;28;20259;-82
2021/11/19 08:12:56;;;;;;;22.53;6.67;;;11.90;92.50;;;;;;5059725;28;20168;-82
2021/11/19 08:15:25;;;;;;;22.23;6.70;;;11.90;92.30;;;;;;5058794;28;20303;-81
2021/11/19 08:17:53;;;;;;;24.77;7.77;;;12.00;92.30;;;;;;5043967;28;20199;-82
2021/11/19 08:20:23;;;;;;;28.80;9.70;;;12.00;92.30;;;;;;5044834;28;20571;-82
2021/11/19 08:22:49;;;;;;;19.53;7.63;;;12.00;92.30;;;;;;5062865;28;20259;-83
2021/11/19 08:25:15;;;;;;;20.63;8.23;;;12.00;92.30;;;;;;5063118;28;20227;-84
2021/11/19 08:27:46;;;;;;;24.23;8.47;;;12.00;92.30;;;;;;5044834;28;20267;-81
2021/11/19 08:30:28;;;;;;;22.73;7.67;;;12.10;92.30;;;;;;5042884;28;20594;-84
2021/11/19 08:32:53;;;;;;;25.07;8.77;;;12.10;92.10;;;;;;5061294;28;20156;-82
2021/11/19 08:35:19;;;;;;;21.47;8.10;;;12.10;92.20;;;;;;5059371;28;20212;-82
2021/11/19 08:37:46;;;;;;;24.37;7.63;;;12.10;92.20;;;;;;5042231;28;20203;-84
2021/11/19 08:40:13;;;;;;;22.70;7.93;;;12.20;92.20;;;;;;5061132;28;20180;-84
2021/11/19 08:42:40;;;;;;;22.87;7.77;;;12.10;92.10;;;;;;5043166;28;20240;-82
2021/11/19 08:45:07;;;;;;;15.47;7.40;;;12.10;92.20;;;;;;5043315;28;20245;-83
2021/11/19 08:47:33;;;;;;;16.70;7.80;;;12.20;92.10;;;;;;5042459;28;20184;-82
2021/11/19 08:50:01;;;;;;;22.67;8.10;;;12.20;92.00;;;;;;5042927;28;20614;-84
2021/11/19 08:52:27;;;;;;;20.47;8.03;;;12.20;92.00;;;;;;5042302;28;20226;-82
2021/11/19 08:54:53;;;;;;;20.07;8.80;;;12.20;92.00;;;;;;5060805;28;20204;-82
2021/11/19 08:57:22;;;;;;;21.10;8.50;;;12.20;92.10;;;;;;5060492;28;20192;-82
2021/11/19 08:59:48;;;;;;;27.73;8.80;;;12.20;92.20;;;;;;5040789;28;20279;-83
2021/11/19 09:02:17;;;;;;;18.43;8.00;;;12.20;92.10;;;;;;5058062;28;20669;-83
2021/11/19 09:04:43;;;;;;;21.80;8.87;;;12.20;92.20;;;;;;5059077;28;20180;-82
2021/11/19 09:07:11;;;;;;;16.90;8.70;;;12.10;92.10;;;;;;5040805;28;20320;-82
2021/11/19 09:09:37;;;;;;;25.43;8.77;;;12.10;92.10;;;;;;5040675;28;20184;-82
2021/11/19 09:12:02;;;;;;;14.07;7.57;;;12.10;92.30;;;;;;5058056;28;20290;-82
2021/11/19 09:14:28;;;;;;;18.50;8.03;;;12.10;92.20;;;;;;5040715;28;20578;-83
2021/11/19 09:17:30;;;;;;;20.23;8.30;;;12.20;92.00;;;;;;5058415;28;20231;-83
2021/11/19 09:19:59;;;;;;;17.23;7.90;;;12.20;92.10;;;;;;5042272;28;20194;-82
2021/11/19 09:22:34;;;;;;;25.47;8.50;;;12.20;91.90;;;;;;5041572;28;20176;-83
2021/11/19 09:25:01;;;;;;;24.70;9.00;;;12.20;91.90;;;;;;5041696;28;20207;-82
2021/11/19 09:27:27;;;;;;;17.43;8.17;;;12.20;91.90;;;;;;5041653;28;20184;-83
2021/11/19 09:29:59;;;;;;;23.50;8.50;;;12.20;92.00;;;;;;5041585;28;20180;-84
2021/11/19 09:32:26;;;;;;;16.33;7.80;;;12.20;91.80;;;;;;5041627;28;20203;-83
2021/11/19 09:34:56;;;;;;;15.50;7.80;;;12.30;91.80;;;;;;5059403;28;20192;-82
2021/11/19 09:37:24;;;;;;;18.90;8.07;;;12.30;91.80;;;;;;5041577;28;20203;-83
2021/11/19 09:39:51;;;;;;;17.70;6.23;;;12.30;91.80;;;;;;5041304;28;20234;-84
2021/11/19 09:42:54;;;;;;;16.03;7.37;;;12.30;91.80;;;;;;5041275;28;20179;-82
2021/11/19 09:45:53;;;;;;;12.43;7.07;;;12.30;91.80;;;;;;5059586;28;20187;-83
2021/11/19 09:48:56;;;;;;;20.33;7.93;;;12.20;91.80;;;;;;5059102;28;20195;-84
2021/11/19 09:51:40;;;;;;;24.13;7.17;;;12.30;91.90;;;;;;5058830;28;20547;-83
2021/11/19 09:54:28;;;;;;;18.47;8.37;;;12.30;91.90;;;;;;5059496;28;20689;-82
2021/11/19 09:57:12;;;;;;;21.43;8.80;;;12.20;91.80;;;;;;5041251;28;20192;-83
2021/11/19 09:59:47;;;;;;;20.63;8.80;;;12.30;91.70;;;;;;5042602;28;20176;-84
2021/11/19 10:02:50;;;;;;;16.23;7.63;;;12.30;91.90;;;;;;5059805;28;20275;-83
2021/11/19 10:05:25;;;;;;;19.50;8.77;;;12.30;91.90;;;;;;5040746;28;20567;-82
2021/11/19 10:08:16;;;;;;;17.10;7.10;;;12.30;91.60;;;;;;5058444;28;20640;-86
2021/11/19 10:10:55;;;;;;;23.93;8.77;;;12.30;91.70;;;;;;5058953;28;20625;-83
2021/11/19 10:13:43;;;;;;;15.33;7.70;;;12.30;91.60;;;;;;5040623;28;20172;-82
2021/11/19 10:16:22;;;;;;;19.03;8.60;;;12.30;91.70;;;;;;5040079;28;20207;-82
2021/11/19 10:18:52;;;;;;;21.37;7.87;;;12.30;91.80;;;;;;5040207;28;20199;-82
2021/11/19 10:21:33;;;;;;;19.70;8.80;;;12.30;91.80;;;;;;5058784;28;20172;-82
2021/11/19 10:24:17;;;;;;;16.37;9.47;;;12.30;91.90;;;;;;5040544;28;20171;-83
2021/11/19 10:26:43;;;;;;;15.97;7.30;;;12.30;91.90;;;;;;5058833;28;20219;-84
2021/11/19 10:29:20;;;;;;;18.43;7.33;;;12.30;91.70;;;;;;5038677;28;20196;-82
2021/11/19 10:31:47;;;;;;;21.40;6.73;;;12.30;91.80;;;;;;5058205;28;20160;-82
2021/11/19 10:34:33;;;;;;;18.37;8.27;;;12.30;91.70;;;;;;5057412;28;20215;-82
2021/11/19 10:37:09;;;;;;;20.23;7.43;;;12.30;91.60;;;;;;5057387;28;20296;-82
2021/11/19 10:39:49;;;;;;;20.17;7.07;;;12.30;91.60;;;;;;5055771;28;20192;-84
2021/11/19 10:42:55;;;;;;;23.57;9.17;;;12.30;91.60;;;;;;5040218;28;20179;-84
2021/11/19 10:45:46;;;;;;;21.63;7.53;;;12.30;91.60;;;;;;5039975;28;20200;-83
2021/11/19 10:48:49;;;;;;;18.57;6.57;;;12.30;91.60;;;;;;5057479;28;20244;-82
2021/11/19 10:51:39;;;;;;;16.57;5.57;;;12.30;91.50;;;;;;5057361;28;20198;-84
2021/11/19 10:54:42;;;;;;;16.57;5.70;;;12.40;91.10;;;;;;5058247;28;20168;-84
2021/11/19 10:57:37;;;;;;;20.67;6.07;;;12.40;91.20;;;;;;5042390;28;20260;-82
2021/11/19 11:00:44;;;;;;;14.97;5.67;;;12.40;91.10;;;;;;5042827;28;20255;-82
2021/11/19 11:03:16;;;;;;;20.50;6.17;;;12.40;91.10;;;;;;5061032;28;20249;-83
2021/11/19 11:05:44;;;;;;;13.90;4.87;;;12.40;91.00;;;;;;5042504;28;20202;-82
2021/11/19 11:08:36;;;;;;;16.97;5.43;;;12.40;90.90;;;;;;5058990;28;20180;-82
2021/11/19 11:11:09;;;;;;;18.23;4.73;;;12.40;91.20;;;;;;5035836;28;20187;-82
2021/11/19 11:13:49;;;;;;;18.03;4.33;;;12.30;91.10;;;;;;5053829;28;20176;-82
2021/11/19 11:16:18;;;;;;;19.73;4.73;;;12.30;90.80;;;;;;5038473;28;20191;-83
2021/11/19 11:19:18;;;;;;;24.63;4.63;;;12.40;90.70;;;;;;5038313;28;20207;-82
2021/11/19 11:22:03;;;;;;;18.47;4.73;;;12.40;90.80;;;;;;5056187;28;20168;-83
2021/11/19 11:24:46;;;;;;;20.17;6.33;;;12.40;90.70;;;;;;5056966;28;20724;-82
2021/11/19 11:27:11;;;;;;;17.20;4.43;;;12.40;90.60;;;;;;5056022;28;20216;-82
2021/11/19 11:29:54;;;;;;;16.87;4.23;;;12.40;90.60;;;;;;5056582;28;20221;-82
2021/11/19 11:32:22;;;;;;;18.47;4.67;;;12.40;90.50;;;;;;5038128;28;20187;-82
2021/11/19 11:34:48;;;;;;;16.63;4.63;;;12.40;90.30;;;;;;5056004;28;20184;-83
2021/11/19 11:37:16;;;;;;;23.27;4.57;;;12.40;90.40;;;;;;5039180;28;20302;-83
2021/11/19 11:40:09;;;;;;;19.13;5.20;;;12.30;90.00;;;;;;5038838;28;20176;-82
2021/11/19 11:42:42;;;;;;;21.53;4.77;;;12.40;90.00;;;;;;5039036;28;20179;-82
2021/11/19 11:45:34;;;;;;;20.80;4.43;;;12.40;90.00;;;;;;5054020;28;20195;-82
2021/11/19 11:48:11;;;;;;;28.47;5.23;;;12.40;90.10;;;;;;5057363;28;20660;-82
2021/11/19 11:51:08;;;;;;;20.63;4.43;;;12.50;90.00;;;;;;5037774;28;20185;-83
2021/11/19 11:54:10;;;;;;;21.30;4.93;;;12.50;90.00;;;;;;5059297;28;20172;-82
2021/11/19 11:56:44;;;;;;;23.40;4.63;;;12.50;89.80;;;;;;5040249;28;20245;-81
2021/11/19 11:59:29;;;;;;;17.67;4.37;;;12.50;89.60;;;;;;5059376;28;20166;-82
2021/11/19 12:01:59;;;;;;;21.30;4.37;;;12.50;89.90;;;;;;5058746;28;20182;-82
2021/11/19 12:04:38;;;;;;;17.33;4.07;;;12.50;89.60;;;;;;5059157;28;20512;-81
2021/11/19 12:07:35;;;;;;;18.13;4.10;;;12.50;89.50;;;;;;5058368;28;20657;-82
2021/11/19 12:10:38;;;;;;;21.40;4.53;;;12.60;89.20;;;;;;5059513;28;20152;-81
2021/11/19 12:13:40;;;;;;;16.67;3.43;;;12.50;89.10;;;;;;5040600;28;20187;-82
2021/11/19 12:16:39;;;;;;;28.17;4.80;;;12.50;88.80;;;;;;5041243;28;20199;-82
2021/11/19 12:19:36;;;;;;;17.63;4.90;;;12.60;89.10;;;;;;5058685;28;20215;-82
2021/11/19 12:22:48;;;;;;;20.63;3.83;;;12.50;89.00;;;;;;5039027;28;20609;-81
2021/11/19 12:25:47;;;;;;;28.27;5.80;;;12.50;89.20;;;;;;5039403;28;20235;-82
2021/11/19 12:28:23;;;;;;;19.50;4.37;;;12.60;89.20;;;;;;5059929;28;20157;-82
2021/11/19 12:31:24;;;;;;;19.23;4.27;;;12.60;89.30;;;;;;5041484;28;20214;-84
2021/11/19 12:33:57;;;;;;;15.80;4.27;;;12.50;89.20;;;;;;4959692;28;20574;-83
2021/11/19 12:36:34;;;;;;;26.07;4.67;;;12.50;89.10;;;;;;5040285;28;20247;-84
2021/11/19 12:39:06;;;;;;;29.50;5.83;;;12.50;89.10;;;;;;5038930;28;20206;-85
2021/11/19 12:42:03;;;;;;;25.27;4.70;;;12.50;88.90;;;;;;5056601;28;20214;-85
2021/11/19 12:44:44;;;;;;;22.30;3.87;;;12.60;88.90;;;;;;5038581;28;20259;-84
2021/11/19 12:47:19;;;;;;;22.17;4.53;;;12.50;88.80;;;;;;5038865;28;20168;-84
2021/11/19 12:50:09;;;;;;;24.83;3.80;;;12.60;89.00;;;;;;5056589;28;20160;-84
2021/11/19 12:53:08;;;;;;;18.60;4.00;;;12.50;89.00;;;;;;5056503;28;20172;-85
2021/11/19 12:56:12;;;;;;;26.03;3.73;;;12.60;88.80;;;;;;5038556;28;20202;-85
2021/11/19 12:58:44;;;;;;;24.90;4.80;;;12.60;88.70;;;;;;5038602;28;20277;-84
2021/11/19 13:01:41;;;;;;;22.77;4.67;;;12.60;88.60;;;;;;5056973;28;20210;-84
2021/11/19 13:04:22;;;;;;;25.07;5.07;;;12.60;88.60;;;;;;5037635;28;20590;-85